Time;durP1;ratioP1;P1;durP2;ratioP2;P2;SDS_P1;SDS_P2;PMS_P1;PMS_P2;Temp;Humidity;BMP_temperature;BMP_pressure;BME280_temperature;BME280_humidity;BME280_pressure;Samples;Min_cycle;Max_cycle;Signal;HPM_P1;HPM_P2
2023/03/13 00:01:54;;;;;;;;;1.33;1.33;;;;;20.54;54.61;100101.48;110030;1267;18407;-40
2023/03/13 00:04:22;;;;;;;;;2.00;2.00;;;;;20.53;54.60;100105.85;109984;1267;18921;-39
2023/03/13 00:06:49;;;;;;;;;5.00;3.00;;;;;20.54;54.35;100103.83;109678;1253;22295;-39
2023/03/13 00:09:17;;;;;;;;;2.00;2.00;;;;;20.54;54.56;100108.02;110025;1267;18480;-39
2023/03/13 00:11:44;;;;;;;;;2.00;2.00;;;;;20.53;54.52;100110.41;110004;1251;20206;-42
2023/03/13 00:14:12;;;;;;;;;2.00;2.00;;;;;20.53;54.30;100101.70;110033;1267;21268;-39
2023/03/13 00:16:39;;;;;;;;;2.00;2.00;;;;;20.53;54.21;100094.28;109981;1251;18455;-40
2023/03/13 00:19:06;;;;;;;;;2.00;2.00;;;;;20.52;54.43;100086.10;110016;1267;20229;-40
2023/03/13 00:21:36;;;;;;;;;3.00;2.50;;;;;20.52;54.25;100085.85;110030;1267;22040;-41
2023/03/13 00:24:03;;;;;;;;;1.00;1.00;;;;;20.52;54.26;100079.31;109988;1267;23027;-39
2023/03/13 00:26:31;;;;;;;;;2.00;2.00;;;;;20.52;54.37;100069.90;110022;1267;18589;-40
2023/03/13 00:28:58;;;;;;;;;2.00;2.00;;;;;20.53;54.20;100066.42;109963;1267;20734;-39
2023/03/13 00:31:26;;;;;;;;;2.50;2.50;;;;;20.52;54.22;100070.69;110005;1267;19651;-39
2023/03/13 00:33:53;;;;;;;;;4.00;2.00;;;;;20.52;54.24;100074.29;110027;1253;23011;-39
2023/03/13 00:36:21;;;;;;;;;4.00;2.00;;;;;20.52;54.40;100069.19;110028;1267;19372;-39
2023/03/13 00:38:48;;;;;;;;;2.00;2.00;;;;;20.52;54.44;100057.98;110000;1267;18555;-40
2023/03/13 00:41:16;;;;;;;;;2.00;2.00;;;;;20.52;54.28;100057.29;110012;1267;21647;-40
2023/03/13 00:43:43;;;;;;;;;2.00;2.00;;;;;20.52;54.27;100061.05;110014;1251;22091;-39
2023/03/13 00:46:10;;;;;;;;;2.00;2.00;;;;;20.52;54.41;100060.48;110006;1267;18359;-40
2023/03/13 00:48:38;;;;;;;;;2.00;2.00;;;;;20.51;54.26;100056.77;109900;1267;18638;-38
2023/03/13 00:51:05;;;;;;;;;2.00;2.00;;;;;20.52;54.19;100050.55;110033;1267;19362;-39
2023/03/13 00:53:33;;;;;;;;;4.00;4.00;;;;;20.51;54.37;100049.48;110015;1267;21955;-39
2023/03/13 00:56:00;;;;;;;;;1.00;1.00;;;;;20.51;54.31;100044.85;110014;1253;20070;-39
2023/03/13 00:58:27;;;;;;;;;4.00;2.00;;;;;20.51;54.10;100038.87;110024;1267;19594;-40
2023/03/13 01:00:55;;;;;;;;;2.00;2.00;;;;;20.51;54.33;100037.00;109984;1267;19933;-39
2023/03/13 01:03:24;;;;;;;;;2.00;2.00;;;;;20.49;54.15;100045.73;110017;1251;21276;-39
2023/03/13 01:05:51;;;;;;;;;2.00;2.00;;;;;20.50;54.19;100043.27;110024;1267;22761;-39
2023/03/13 01:08:18;;;;;;;;;2.00;1.00;;;;;20.50;54.37;100041.13;110020;1267;19623;-40
2023/03/13 01:10:46;;;;;;;;;2.00;2.00;;;;;20.50;54.27;100041.88;110028;1253;20056;-39
2023/03/13 01:13:13;;;;;;;;;2.00;2.00;;;;;20.51;54.01;100041.98;110002;1267;19574;-39
2023/03/13 01:15:41;;;;;;;;;2.50;2.50;;;;;20.49;53.89;100043.30;110090;1267;18490;-38
2023/03/13 01:18:08;;;;;;;;;2.00;2.00;;;;;20.49;54.07;100042.54;110046;1251;23882;-38
2023/03/13 01:20:36;;;;;;;;;1.00;1.00;;;;;20.50;54.18;100029.77;110022;1267;19212;-38
2023/03/13 01:23:03;;;;;;;;;2.00;2.00;;;;;20.49;53.97;100021.14;110037;1251;22217;-41
2023/03/13 01:25:30;;;;;;;;;3.00;3.00;;;;;20.49;53.94;100018.79;110052;1267;20047;-41
2023/03/13 01:27:58;;;;;;;;;1.00;1.00;;;;;20.49;53.89;100020.77;110033;1267;19612;-39
2023/03/13 01:30:25;;;;;;;;;2.50;2.50;;;;;20.49;53.96;100020.05;109980;1267;19690;-39
2023/03/13 01:32:53;;;;;;;;;1.00;1.00;;;;;20.48;54.00;100016.16;109882;1260;18977;-39
2023/03/13 01:35:20;;;;;;;;;2.00;2.00;;;;;20.49;54.01;100014.81;110022;1260;19432;-39
2023/03/13 01:37:48;;;;;;;;;2.00;2.00;;;;;20.49;54.19;100013.45;110004;1267;22320;-39
2023/03/13 01:40:16;;;;;;;;;2.00;2.00;;;;;20.49;53.88;100012.05;110030;1267;18617;-39
2023/03/13 01:42:43;;;;;;;;;1.00;1.00;;;;;20.48;53.84;100009.04;110059;1267;19400;-39
2023/03/13 01:45:10;;;;;;;;;2.00;2.00;;;;;20.48;53.84;100007.77;110039;1267;18318;-40
2023/03/13 01:47:38;;;;;;;;;2.00;2.00;;;;;20.48;53.94;100009.79;109979;1267;22666;-39
2023/03/13 01:50:05;;;;;;;;;1.00;1.00;;;;;20.48;53.88;100009.25;109999;1253;21002;-40
2023/03/13 01:52:33;;;;;;;;;3.00;3.00;;;;;20.48;53.88;100004.35;109926;1267;19834;-40
2023/03/13 01:55:00;;;;;;;;;2.00;2.00;;;;;20.48;53.90;100004.55;109992;1267;20158;-39
2023/03/13 01:57:28;;;;;;;;;2.00;1.00;;;;;20.48;53.76;100006.60;109956;1267;22790;-39
2023/03/13 01:59:55;;;;;;;;;2.00;2.00;;;;;20.47;54.07;100000.86;109993;1267;18448;-40
2023/03/13 02:02:22;;;;;;;;;4.00;4.00;;;;;20.47;53.88;100001.40;110060;1267;18637;-40
2023/03/13 02:04:51;;;;;;;;;2.00;2.00;;;;;20.48;53.98;100001.24;110006;1267;19363;-40
2023/03/13 02:07:19;;;;;;;;;2.00;2.00;;;;;20.47;54.03;100001.83;109991;1267;19539;-39
2023/03/13 02:09:49;;;;;;;;;2.00;2.00;;;;;20.47;53.84;99998.59;110011;1267;20008;-40
2023/03/13 02:12:17;;;;;;;;;4.00;2.00;;;;;20.46;53.76;99990.13;110010;1267;19401;-39
2023/03/13 02:14:44;;;;;;;;;2.00;2.00;;;;;20.46;53.71;99989.01;110032;1267;18389;-39
2023/03/13 02:17:12;;;;;;;;;2.00;2.00;;;;;20.47;53.67;99997.13;110003;1267;20338;-39
2023/03/13 02:19:39;;;;;;;;;2.00;2.00;;;;;20.47;53.92;99994.39;109987;1267;22207;-39
2023/03/13 02:22:07;;;;;;;;;2.00;2.00;;;;;20.47;53.80;99988.55;110005;1267;18416;-39
2023/03/13 02:24:34;;;;;;;;;2.00;2.00;;;;;20.46;53.85;99981.78;110014;1251;18846;-39
2023/03/13 02:27:01;;;;;;;;;2.00;2.00;;;;;20.46;53.89;99988.13;110031;1253;21176;-40
2023/03/13 02:29:29;;;;;;;;;1.50;1.50;;;;;20.47;53.66;99996.41;109992;1251;19582;-39
2023/03/13 02:31:56;;;;;;;;;2.00;2.00;;;;;20.46;53.67;99985.36;109998;1254;20023;-39
2023/03/13 02:34:24;;;;;;;;;2.50;2.50;;;;;20.45;53.83;99976.02;110011;1267;19311;-40
2023/03/13 02:36:51;;;;;;;;;1.00;1.00;;;;;20.46;53.79;99967.46;109958;1251;19602;-39
2023/03/13 02:39:19;;;;;;;;;1.00;1.00;;;;;20.45;53.75;99956.48;110004;1267;22712;-42
2023/03/13 02:41:46;;;;;;;;;2.00;2.00;;;;;20.45;53.78;99957.73;110013;1251;22427;-40
2023/03/13 02:44:14;;;;;;;;;1.00;1.00;;;;;20.45;53.83;99964.09;110013;1253;19630;-38
2023/03/13 02:46:41;;;;;;;;;2.00;2.00;;;;;20.45;53.72;99974.57;109995;1267;22251;-39
2023/03/13 02:49:08;;;;;;;;;1.00;1.00;;;;;20.45;53.63;99972.25;110003;1261;19340;-39
2023/03/13 02:51:36;;;;;;;;;2.00;2.00;;;;;20.46;53.84;99969.85;110011;1267;19570;-39
2023/03/13 02:54:03;;;;;;;;;1.00;1.00;;;;;20.45;53.60;99963.05;110032;1251;20017;-38
2023/03/13 02:56:31;;;;;;;;;1.00;1.00;;;;;20.46;53.78;99965.70;109957;1260;20721;-38
2023/03/13 02:58:58;;;;;;;;;2.00;2.00;;;;;20.46;53.69;99965.09;110014;1251;19841;-39
2023/03/13 03:01:26;;;;;;;;;3.00;3.00;;;;;20.45;53.72;99965.56;110016;1267;19883;-39
2023/03/13 03:03:53;;;;;;;;;2.00;1.00;;;;;20.45;53.72;99965.89;110038;1267;21116;-40
2023/03/13 03:06:20;;;;;;;;;1.00;1.00;;;;;20.44;53.62;99961.27;110003;1253;19949;-38
2023/03/13 03:08:48;;;;;;;;;2.00;2.00;;;;;20.45;53.64;99961.07;110008;1267;22226;-39
2023/03/13 03:11:15;;;;;;;;;1.00;1.00;;;;;20.44;53.75;99962.35;110019;1267;21002;-41
2023/03/13 03:13:43;;;;;;;;;2.00;2.00;;;;;20.45;53.82;99958.13;109992;1267;18662;-40
2023/03/13 03:16:10;;;;;;;;;2.00;2.00;;;;;20.45;53.59;99957.63;110024;1251;22764;-39
2023/03/13 03:18:38;;;;;;;;;1.00;1.00;;;;;20.44;53.72;99961.64;109641;1267;20943;-39
2023/03/13 03:21:05;;;;;;;;;2.00;2.00;;;;;20.44;53.61;99958.83;110003;1267;20867;-38
2023/03/13 03:23:33;;;;;;;;;4.00;2.00;;;;;20.44;53.57;99957.33;109915;1267;20509;-39
2023/03/13 03:26:01;;;;;;;;;1.00;1.00;;;;;20.43;53.61;99950.14;109909;1267;21090;-38
2023/03/13 03:28:28;;;;;;;;;2.00;2.00;;;;;20.43;53.46;99946.67;110016;1252;19354;-41
2023/03/13 03:30:56;;;;;;;;;2.00;2.00;;;;;20.44;53.47;99946.67;110025;1253;20100;-40
2023/03/13 03:33:23;;;;;;;;;2.00;2.00;;;;;20.44;53.48;99947.02;110020;1267;19470;-40
2023/03/13 03:35:50;;;;;;;;;2.00;2.00;;;;;20.44;53.38;99946.48;110001;1251;22371;-39
2023/03/13 03:38:18;;;;;;;;;1.00;1.00;;;;;20.43;53.50;99944.74;110027;1267;20002;-40
2023/03/13 03:40:45;;;;;;;;;3.00;3.00;;;;;20.43;53.50;99941.64;109956;1253;20930;-38
2023/03/13 03:43:13;;;;;;;;;1.00;1.00;;;;;20.43;53.59;99942.95;109931;1267;19633;-37
2023/03/13 03:45:40;;;;;;;;;2.00;2.00;;;;;20.43;53.55;99943.33;110035;1251;21091;-38
2023/03/13 03:48:08;;;;;;;;;2.00;2.00;;;;;20.43;53.44;99937.13;110063;1267;19257;-37
2023/03/13 03:50:35;;;;;;;;;2.50;2.00;;;;;20.43;53.74;99938.38;110023;1251;18745;-39
2023/03/13 03:53:02;;;;;;;;;1.00;1.00;;;;;20.43;53.46;99934.27;109988;1267;20054;-39
2023/03/13 03:55:30;;;;;;;;;1.00;1.00;;;;;20.43;53.39;99925.19;109934;1267;20865;-41
2023/03/13 03:57:57;;;;;;;;;2.00;2.00;;;;;20.43;53.63;99920.13;109991;1260;19679;-39
2023/03/13 04:00:26;;;;;;;;;2.00;2.00;;;;;20.43;53.49;99925.19;109986;1267;18949;-38
2023/03/13 04:02:54;;;;;;;;;1.00;1.00;;;;;20.43;53.51;99924.48;110051;1261;20796;-39
2023/03/13 04:05:22;;;;;;;;;1.00;1.00;;;;;20.42;53.35;99919.08;109971;1251;19461;-39
2023/03/13 04:07:49;;;;;;;;;2.00;2.00;;;;;20.42;53.53;99913.67;109908;1251;22744;-38
2023/03/13 04:10:17;;;;;;;;;1.00;1.00;;;;;20.43;53.57;99911.23;110000;1267;19409;-38
2023/03/13 04:12:44;;;;;;;;;3.00;2.00;;;;;20.42;53.53;99901.15;109934;1267;19019;-38
2023/03/13 04:15:12;;;;;;;;;2.00;2.00;;;;;20.42;53.51;99900.98;110048;1267;20043;-39
2023/03/13 04:17:39;;;;;;;;;2.00;2.00;;;;;20.42;53.37;99901.86;110011;1267;20803;-38
2023/03/13 04:20:07;;;;;;;;;2.00;2.00;;;;;20.41;53.25;99896.71;110061;1267;18540;-39
2023/03/13 04:22:34;;;;;;;;;2.00;2.00;;;;;20.41;53.33;99896.04;110035;1251;23419;-39
2023/03/13 04:25:02;;;;;;;;;1.00;1.00;;;;;20.41;53.44;99890.27;110047;1253;21012;-38
2023/03/13 04:27:29;;;;;;;;;2.00;2.00;;;;;20.41;53.44;99879.58;110031;1267;19549;-41
2023/03/13 04:29:57;;;;;;;;;2.00;2.00;;;;;20.42;53.49;99886.88;110034;1267;18875;-38
2023/03/13 04:32:24;;;;;;;;;2.00;2.00;;;;;20.42;53.37;99887.33;109987;1267;20775;-38
2023/03/13 04:34:52;;;;;;;;;2.00;2.00;;;;;20.41;53.49;99878.62;110017;1267;22027;-39
2023/03/13 04:37:19;;;;;;;;;4.00;2.00;;;;;20.42;53.36;99883.18;110025;1267;18623;-41
2023/03/13 04:39:47;;;;;;;;;2.00;2.00;;;;;20.41;53.30;99881.00;110001;1267;19398;-38
2023/03/13 04:42:14;;;;;;;;;4.33;3.33;;;;;20.41;53.19;99879.20;110011;1267;18447;-38
2023/03/13 04:44:42;;;;;;;;;1.67;1.67;;;;;20.41;53.31;99877.52;110054;1253;20050;-40
2023/03/13 04:47:09;;;;;;;;;2.00;2.00;;;;;20.41;53.42;99876.86;110013;1267;19393;-40
2023/03/13 04:49:36;;;;;;;;;3.00;3.00;;;;;20.41;53.44;99877.36;109992;1253;20161;-40
2023/03/13 04:52:04;;;;;;;;;2.00;2.00;;;;;20.41;53.42;99879.38;110031;1267;19446;-39
2023/03/13 04:54:31;;;;;;;;;1.00;1.00;;;;;20.41;53.36;99878.24;110010;1253;22418;-39
2023/03/13 04:56:59;;;;;;;;;2.00;2.00;;;;;20.40;53.55;99870.73;109958;1267;18428;-39
2023/03/13 04:59:26;;;;;;;;;2.00;2.00;;;;;20.40;53.38;99872.61;110032;1267;19995;-41
2023/03/13 05:01:54;;;;;;;;;2.00;2.00;;;;;20.40;53.35;99874.71;110011;1267;19524;-38
2023/03/13 05:04:21;;;;;;;;;2.00;2.00;;;;;20.41;53.18;99870.27;110031;1267;21141;-39
2023/03/13 05:06:49;;;;;;;;;4.00;2.00;;;;;20.40;53.39;99870.41;110027;1251;18655;-41
2023/03/13 05:09:16;;;;;;;;;2.00;2.00;;;;;20.40;53.27;99871.67;109989;1259;19875;-38
2023/03/13 05:11:44;;;;;;;;;2.00;2.00;;;;;20.40;53.22;99872.82;110001;1267;18512;-39
2023/03/13 05:14:11;;;;;;;;;2.00;2.00;;;;;20.39;53.19;99865.23;110039;1251;20020;-39
2023/03/13 05:16:38;;;;;;;;;4.00;3.33;;;;;20.39;53.31;99866.45;110010;1253;22054;-39
2023/03/13 05:19:06;;;;;;;;;1.50;1.50;;;;;20.39;53.40;99866.33;110038;1267;19683;-39
2023/03/13 05:21:33;;;;;;;;;2.00;2.00;;;;;20.39;53.27;99864.02;110035;1267;20099;-41
2023/03/13 05:24:01;;;;;;;;;2.00;2.00;;;;;20.39;53.27;99865.05;110014;1267;19349;-39
2023/03/13 05:26:28;;;;;;;;;2.00;2.00;;;;;20.39;53.24;99857.45;109991;1253;19663;-39
2023/03/13 05:28:56;;;;;;;;;3.00;3.00;;;;;20.39;53.25;99855.58;110027;1267;20231;-39
2023/03/13 05:31:23;;;;;;;;;3.00;3.00;;;;;20.40;53.16;99848.45;109901;1267;21106;-39
2023/03/13 05:33:50;;;;;;;;;2.00;2.00;;;;;20.39;53.33;99839.70;110012;1251;19642;-39
2023/03/13 05:36:18;;;;;;;;;4.00;2.00;;;;;20.38;53.29;99837.17;110029;1254;20106;-39
2023/03/13 05:38:45;;;;;;;;;3.00;3.00;;;;;20.39;53.18;99837.60;110021;1251;21085;-40
2023/03/13 05:41:13;;;;;;;;;2.00;2.00;;;;;20.39;53.11;99831.52;110025;1267;18364;-39
2023/03/13 05:43:40;;;;;;;;;2.00;2.00;;;;;20.39;53.24;99830.27;109986;1267;19999;-39
2023/03/13 05:46:08;;;;;;;;;2.00;2.00;;;;;20.39;53.24;99822.10;110021;1253;20772;-39
2023/03/13 05:48:35;;;;;;;;;3.00;3.00;;;;;20.39;53.17;99823.48;110013;1253;19836;-39
2023/03/13 05:51:02;;;;;;;;;2.00;2.00;;;;;20.38;53.31;99819.84;110009;1267;18605;-39
2023/03/13 05:53:30;;;;;;;;;2.00;2.00;;;;;20.39;53.24;99821.52;110014;1251;22072;-40
2023/03/13 05:55:57;;;;;;;;;4.00;2.00;;;;;20.37;53.26;99819.74;110031;1267;19758;-39
2023/03/13 05:58:25;;;;;;;;;3.00;3.00;;;;;20.37;53.22;99815.81;110049;1267;18638;-39
2023/03/13 06:00:52;;;;;;;;;2.00;2.00;;;;;20.38;53.44;99822.23;109896;1267;19384;-40
2023/03/13 06:03:20;;;;;;;;;2.00;2.00;;;;;20.39;53.41;99825.11;109996;1251;23521;-39
2023/03/13 06:05:47;;;;;;;;;2.00;2.00;;;;;20.40;53.33;99821.62;109999;1251;18832;-39
2023/03/13 06:08:15;;;;;;;;;3.00;3.00;;;;;20.41;53.36;99820.23;110053;1251;22071;-38
2023/03/13 06:10:42;;;;;;;;;2.00;2.00;;;;;20.42;53.56;99821.34;110037;1267;18549;-39
2023/03/13 06:13:10;;;;;;;;;2.00;2.00;;;;;20.46;53.28;99822.98;109937;1267;22377;-39
2023/03/13 06:15:37;;;;;;;;;4.00;3.00;;;;;20.48;53.69;99824.86;110018;1267;19265;-38
2023/03/13 06:18:04;;;;;;;;;2.00;2.00;;;;;20.50;53.73;99822.31;110019;1267;18483;-38
2023/03/13 06:20:32;;;;;;;;;2.00;2.00;;;;;20.52;53.68;99818.15;109881;1267;22851;-38
2023/03/13 06:22:59;;;;;;;;;7.00;7.00;;;;;20.54;54.01;99813.39;109869;1251;19522;-40
2023/03/13 06:25:27;;;;;;;;;311.33;257.33;;;;;20.57;53.79;99805.79;109954;1251;22376;-39
2023/03/13 06:27:54;;;;;;;;;297.00;249.67;;;;;20.54;54.42;99803.42;109990;1267;20167;-38
2023/03/13 06:30:22;;;;;;;;;229.67;196.67;;;;;20.54;55.23;99796.38;110003;1253;20833;-38
2023/03/13 06:32:50;;;;;;;;;180.00;146.00;;;;;20.54;55.28;99789.27;109964;1251;20499;-40
2023/03/13 06:35:17;;;;;;;;;120.00;102.00;;;;;20.54;55.59;99791.70;110001;1267;18841;-38
2023/03/13 06:37:44;;;;;;;;;107.50;80.50;;;;;20.52;55.30;99795.87;109999;1267;19716;-38
2023/03/13 06:40:12;;;;;;;;;96.00;72.00;;;;;20.51;55.51;99796.27;110000;1267;20317;-38
2023/03/13 06:42:39;;;;;;;;;84.00;67.00;;;;;20.49;55.51;99791.61;109979;1267;21994;-39
2023/03/13 06:45:07;;;;;;;;;73.00;60.00;;;;;20.49;55.47;99788.34;109997;1253;20896;-38
2023/03/13 06:47:34;;;;;;;;;70.00;53.00;;;;;20.48;55.35;99784.23;110026;1251;21327;-38
2023/03/13 06:50:02;;;;;;;;;69.00;54.00;;;;;20.50;55.38;99782.06;110004;1267;20190;-39
2023/03/13 06:52:29;;;;;;;;;69.50;53.00;;;;;20.53;55.26;99777.20;110032;1267;19706;-39
2023/03/13 06:54:57;;;;;;;;;60.50;52.00;;;;;20.55;54.99;99778.30;109996;1253;20063;-39
2023/03/13 06:57:25;;;;;;;;;50.00;44.50;;;;;20.57;55.09;99777.18;110018;1267;18756;-39
2023/03/13 06:59:52;;;;;;;;;55.50;46.00;;;;;20.56;55.09;99775.40;109972;1267;19425;-39
2023/03/13 07:02:19;;;;;;;;;50.00;46.00;;;;;20.54;55.10;99771.30;110022;1267;22376;-39
2023/03/13 07:04:47;;;;;;;;;40.00;37.00;;;;;20.56;55.23;99771.23;109998;1267;22796;-39
2023/03/13 07:07:14;;;;;;;;;45.00;39.50;;;;;20.55;55.31;99768.08;109964;1267;21137;-39
2023/03/13 07:09:42;;;;;;;;;38.00;34.00;;;;;20.54;55.27;99762.63;109915;1251;20071;-39
2023/03/13 07:12:09;;;;;;;;;34.00;28.00;;;;;20.52;55.38;99763.75;109978;1267;20205;-40
2023/03/13 07:14:37;;;;;;;;;34.00;29.00;;;;;20.52;55.40;99759.98;110024;1267;20723;-39
2023/03/13 07:17:04;;;;;;;;;36.50;26.00;;;;;20.53;55.48;99756.75;110016;1251;22309;-41
2023/03/13 07:19:32;;;;;;;;;27.00;26.00;;;;;20.51;55.24;99755.15;109924;1267;19084;-39
2023/03/13 07:21:59;;;;;;;;;33.00;31.00;;;;;20.51;55.49;99750.16;109944;1267;20702;-38
2023/03/13 07:24:26;;;;;;;;;28.00;26.00;;;;;20.51;55.14;99743.29;110019;1253;20034;-38
2023/03/13 07:26:54;;;;;;;;;24.50;22.00;;;;;20.50;55.22;99737.13;109998;1260;18765;-38
2023/03/13 07:29:21;;;;;;;;;22.50;20.00;;;;;20.49;55.29;99729.30;110006;1267;22053;-38
2023/03/13 07:31:49;;;;;;;;;25.00;23.00;;;;;20.52;54.93;99726.30;110014;1267;19952;-39
2023/03/13 07:34:16;;;;;;;;;20.00;19.00;;;;;20.54;55.05;99721.91;110026;1260;20127;-40
2023/03/13 07:36:44;;;;;;;;;24.00;22.00;;;;;20.54;54.98;99716.69;109962;1253;20992;-40
2023/03/13 07:39:11;;;;;;;;;22.50;19.50;;;;;20.56;54.86;99712.16;109961;1267;22758;-46
2023/03/13 07:41:38;;;;;;;;;24.50;21.00;;;;;20.58;54.97;99706.91;109997;1267;20124;-39
2023/03/13 07:44:06;;;;;;;;;23.00;19.00;;;;;20.61;54.80;99704.61;109925;1260;23172;-41
2023/03/13 07:46:33;;;;;;;;;19.00;16.00;;;;;20.61;54.96;99702.53;109949;1267;19956;-40
2023/03/13 07:49:01;;;;;;;;;22.00;16.00;;;;;20.63;55.01;99703.72;109910;1267;18896;-40
2023/03/13 07:51:28;;;;;;;;;18.00;16.00;;;;;20.63;55.15;99701.75;109890;1251;22255;-40
2023/03/13 07:53:56;;;;;;;;;16.00;14.50;;;;;20.61;55.05;99693.90;109886;1267;22367;-39
2023/03/13 07:56:23;;;;;;;;;17.00;17.00;;;;;20.56;54.71;99686.20;109903;1267;22947;-39
2023/03/13 07:58:50;;;;;;;;;19.00;16.50;;;;;20.51;54.35;99685.46;109950;1267;21197;-41
2023/03/13 08:01:18;;;;;;;;;18.00;17.00;;;;;20.51;54.22;99676.67;109999;1267;18634;-39
2023/03/13 08:03:47;;;;;;;;;16.50;14.00;;;;;20.54;53.96;99674.94;110001;1267;22203;-38
2023/03/13 08:06:15;;;;;;;;;16.33;13.00;;;;;20.57;54.15;99676.86;109994;1253;22945;-38
2023/03/13 08:08:43;;;;;;;;;14.50;14.50;;;;;20.56;54.26;99667.06;109995;1267;18707;-38
2023/03/13 08:11:10;;;;;;;;;14.00;13.00;;;;;20.57;53.93;99667.29;110015;1251;20073;-38
2023/03/13 08:13:38;;;;;;;;;19.67;12.67;;;;;20.59;54.05;99669.10;110043;1267;19481;-38
2023/03/13 08:16:05;;;;;;;;;11.00;11.00;;;;;20.59;54.51;99662.70;110013;1267;18621;-38
2023/03/13 08:18:33;;;;;;;;;13.33;10.67;;;;;20.59;54.36;99663.07;109999;1267;18718;-37
2023/03/13 08:21:01;;;;;;;;;17.00;14.00;;;;;20.56;54.57;99657.61;109995;1251;21963;-38
2023/03/13 08:23:28;;;;;;;;;11.00;11.00;;;;;20.57;54.48;99657.40;110051;1267;20313;-38
2023/03/13 08:25:56;;;;;;;;;;;;;;;20.57;54.50;99654.50;109750;1267;324950;-39
2023/03/13 08:28:23;;;;;;;;;11.00;10.00;;;;;20.58;54.52;99648.40;110010;1253;20017;-43
2023/03/13 08:30:51;;;;;;;;;11.00;10.00;;;;;20.59;54.45;99644.02;109996;1251;18529;-39
2023/03/13 08:33:18;;;;;;;;;11.00;9.00;;;;;20.61;54.79;99640.20;110000;1267;20503;-39
2023/03/13 08:35:46;;;;;;;;;10.00;8.00;;;;;20.62;54.93;99641.71;110013;1267;20707;-39
2023/03/13 08:38:13;;;;;;;;;11.00;8.00;;;;;20.61;54.99;99638.52;110002;1254;20056;-39
2023/03/13 08:40:41;;;;;;;;;8.00;8.00;;;;;20.63;55.11;99635.05;109997;1267;19038;-39
2023/03/13 08:43:08;;;;;;;;;8.00;8.00;;;;;20.63;55.26;99634.30;110005;1267;22001;-40
2023/03/13 08:45:35;;;;;;;;;8.00;7.00;;;;;20.66;55.57;99635.11;109934;1267;19560;-39
2023/03/13 08:48:03;;;;;;;;;7.00;5.00;;;;;20.67;55.67;99629.92;109918;1267;18652;-39
2023/03/13 08:50:30;;;;;;;;;7.00;7.00;;;;;20.68;56.25;99628.34;109988;1253;22293;-39
2023/03/13 08:52:58;;;;;;;;;25.00;23.00;;;;;20.67;56.78;99624.64;110008;1253;19703;-39
2023/03/13 08:55:25;;;;;;;;;54.00;44.00;;;;;20.65;56.67;99620.34;109960;1251;20155;-39
2023/03/13 08:57:53;;;;;;;;;79.50;56.50;;;;;20.63;56.79;99622.96;110024;1267;19578;-41
2023/03/13 09:00:20;;;;;;;;;102.00;71.00;;;;;20.62;56.75;99617.92;110023;1267;18582;-39
2023/03/13 09:02:48;;;;;;;;;97.00;65.00;;;;;20.61;56.70;99618.13;110044;1267;19211;-39
2023/03/13 09:05:15;;;;;;;;;80.00;57.00;;;;;20.64;56.76;99619.54;110040;1267;19364;-39
2023/03/13 09:07:43;;;;;;;;;81.00;57.33;;;;;20.67;56.67;99619.00;110041;1267;22060;-39
2023/03/13 09:10:10;;;;;;;;;71.50;50.50;;;;;20.66;56.67;99618.91;110030;1267;20008;-39
2023/03/13 09:12:38;;;;;;;;;67.50;52.00;;;;;20.67;56.60;99612.63;110035;1253;20834;-39
2023/03/13 09:15:05;;;;;;;;;57.00;47.00;;;;;20.67;56.56;99609.57;110036;1267;22581;-39
2023/03/13 09:17:33;;;;;;;;;51.00;42.00;;;;;20.69;56.52;99601.86;110040;1253;20259;-39
2023/03/13 09:20:00;;;;;;;;;40.50;34.50;;;;;20.69;56.48;99599.31;109965;1266;19384;-39
2023/03/13 09:22:27;;;;;;;;;48.00;37.00;;;;;20.70;56.64;99595.35;109994;1253;19997;-39
2023/03/13 09:24:55;;;;;;;;;42.00;32.00;;;;;20.68;56.67;99586.20;110027;1260;23083;-39
2023/03/13 09:27:22;;;;;;;;;36.00;29.00;;;;;20.70;56.54;99585.41;109976;1266;20711;-39
2023/03/13 09:29:50;;;;;;;;;31.00;27.00;;;;;20.71;56.63;99574.40;110056;1266;18700;-39
2023/03/13 09:32:19;;;;;;;;;27.00;25.00;;;;;20.74;57.17;99566.74;110041;1266;20079;-40
2023/03/13 09:34:46;;;;;;;;;28.00;22.00;;;;;20.76;57.29;99559.92;110040;1266;22229;-40
2023/03/13 09:37:14;;;;;;;;;28.50;22.50;;;;;20.79;57.56;99558.54;110043;1266;19967;-40
2023/03/13 09:39:41;;;;;;;;;20.00;17.00;;;;;20.81;57.71;99553.02;110046;1266;22559;-40
2023/03/13 09:42:09;;;;;;;;;22.00;22.00;;;;;20.81;57.97;99545.20;110028;1266;22677;-40
2023/03/13 09:44:36;;;;;;;;;22.00;14.00;;;;;20.82;57.86;99541.09;110057;1266;19918;-40
2023/03/13 09:47:04;;;;;;;;;20.00;16.00;;;;;20.81;58.12;99535.63;110083;1266;18746;-40
2023/03/13 09:49:31;;;;;;;;;19.00;16.00;;;;;20.77;57.50;99535.66;109913;1250;22828;-40
2023/03/13 09:51:59;;;;;;;;;19.50;17.00;;;;;20.71;57.16;99528.95;110046;1266;19986;-42
2023/03/13 09:54:26;;;;;;;;;16.00;13.00;;;;;20.72;56.88;99523.13;110040;1266;20489;-39
2023/03/13 09:56:54;;;;;;;;;20.00;18.00;;;;;20.77;56.79;99518.12;110023;1266;22238;-39
2023/03/13 09:59:21;;;;;;;;;16.50;14.00;;;;;20.79;56.59;99515.73;110051;1266;20045;-40
2023/03/13 10:01:48;;;;;;;;;17.00;14.00;;;;;20.78;56.62;99516.45;110074;1266;18725;-40
2023/03/13 10:04:16;;;;;;;;;17.67;16.67;;;;;20.73;56.92;99509.48;110051;1266;20857;-39
2023/03/13 10:06:43;;;;;;;;;14.00;13.00;;;;;20.68;56.28;99505.20;110023;1254;18745;-39
2023/03/13 10:09:11;;;;;;;;;15.00;13.00;;;;;20.64;55.31;99494.93;110019;1266;22181;-39
2023/03/13 10:11:38;;;;;;;;;13.50;10.00;;;;;20.61;54.98;99491.48;109986;1266;19390;-39
2023/03/13 10:14:06;;;;;;;;;12.00;10.50;;;;;20.63;54.83;99489.45;110008;1266;19934;-39
2023/03/13 10:16:33;;;;;;;;;11.00;10.00;;;;;20.63;55.13;99480.84;110037;1266;20088;-39
2023/03/13 10:19:01;;;;;;;;;10.00;8.00;;;;;20.67;55.38;99478.55;110033;1251;22318;-39
2023/03/13 10:21:28;;;;;;;;;12.00;11.00;;;;;20.67;55.18;99475.88;110034;1266;22717;-39
2023/03/13 10:23:55;;;;;;;;;11.00;10.00;;;;;20.65;55.32;99472.82;110013;1266;18871;-39
2023/03/13 10:26:23;;;;;;;;;11.00;10.00;;;;;20.65;55.54;99470.98;110006;1250;20771;-40
2023/03/13 10:28:50;;;;;;;;;12.00;10.00;;;;;20.66;55.30;99467.36;110029;1266;18778;-40
2023/03/13 10:31:18;;;;;;;;;13.00;13.00;;;;;20.58;54.89;99468.27;110005;1266;20274;-39
2023/03/13 10:33:45;;;;;;;;;13.00;11.00;;;;;20.54;54.31;99462.81;109804;1266;20754;-40
2023/03/13 10:36:13;;;;;;;;;9.00;8.00;;;;;20.48;54.01;99464.49;109910;1266;18590;-40
2023/03/13 10:38:40;;;;;;;;;12.50;10.50;;;;;20.42;53.37;99457.36;110001;1251;19964;-40
2023/03/13 10:44:11;;;;;;;;;12.00;10.00;;;;;20.39;52.81;99443.53;109830;1253;20215;-39
2023/03/13 10:46:39;;;;;;;;;19.00;11.00;;;;;20.42;52.77;99443.16;109908;1266;20287;-39
2023/03/13 10:49:06;;;;;;;;;16.50;15.00;;;;;20.45;52.40;99438.61;110037;1250;19716;-39
2023/03/13 10:51:34;;;;;;;;;16.00;13.50;;;;;20.44;51.82;99434.09;110025;1266;19858;-40
2023/03/13 10:54:01;;;;;;;;;13.00;13.00;;;;;20.36;51.46;99428.80;110040;1250;22820;-39
2023/03/13 10:56:29;;;;;;;;;13.50;13.00;;;;;20.29;51.00;99427.54;110007;1250;19347;-39
2023/03/13 10:58:56;;;;;;;;;13.00;11.00;;;;;20.29;51.31;99418.86;110033;1252;19949;-40
2023/03/13 11:01:24;;;;;;;;;11.00;11.00;;;;;20.28;51.09;99420.45;110042;1266;20067;-40
2023/03/13 11:03:51;;;;;;;;;16.00;13.00;;;;;20.27;51.24;99412.52;110022;1266;19380;-40
2023/03/13 11:06:19;;;;;;;;;11.00;11.00;;;;;20.25;51.19;99404.45;110017;1254;20042;-40
2023/03/13 11:08:46;;;;;;;;;12.50;11.50;;;;;20.23;50.85;99399.73;110044;1266;20911;-40
2023/03/13 11:11:13;;;;;;;;;18.00;15.00;;;;;20.21;50.47;99392.16;110046;1250;22462;-40
2023/03/13 11:13:41;;;;;;;;;15.50;12.00;;;;;20.18;50.37;99383.64;109917;1251;20857;-40
2023/03/13 11:16:09;;;;;;;;;12.00;10.00;;;;;20.18;49.99;99380.38;110079;1266;18708;-39
2023/03/13 11:18:36;;;;;;;;;13.00;12.00;;;;;20.20;49.72;99375.92;110023;1266;20904;-39
2023/03/13 11:21:04;;;;;;;;;12.00;10.00;;;;;20.24;50.00;99370.16;110037;1266;20134;-39